| time (UTC) | temp C | wind direction | speed KPH | gust KPH | rain 1hr cm | rain 24hr cm | rain mn cm | humidity % | barometer mb |
| 20260506002846 | 23 | 245 | 0.0 | 8.0 | 0.00 | 0.00 | 0.00 | 41 | 1007.4 |
| 20260506002347 | 23 | 217 | 1.6 | 8.0 | 0.00 | 0.00 | 0.00 | 40 | 1007.4 |
| 20260506001845 | 23 | 228 | 0.0 | 6.4 | 0.00 | 0.00 | 0.00 | 40 | 1007.3 |
| 20260506001342 | 23 | 206 | 1.6 | 9.7 | 0.00 | 0.00 | 0.00 | 40 | 1007.3 |
| 20260506000855 | 23 | 260 | 0.0 | 12.9 | 0.00 | 0.00 | 0.00 | 39 | 1007.3 |
| 20260506000411 | 24 | 226 | 3.2 | 17.7 | 0.00 | 0.00 | 0.00 | 38 | 1007.2 |
| 20260505235845 | 24 | 250 | 4.8 | 17.7 | 0.00 | 0.00 | 0.00 | 38 | 1007.2 |
| 20260505235340 | 24 | 236 | 0.0 | 14.5 | 0.00 | 0.00 | 0.00 | 38 | 1007.1 |
| 20260505234916 | 24 | 223 | 8.0 | 17.7 | 0.00 | 0.00 | 0.00 | 37 | 1007.0 |
| 20260505234351 | 25 | 238 | 6.4 | 17.7 | 0.00 | 0.00 | 0.00 | 38 | 1007.0 |
| 20260505233849 | 25 | 283 | 6.4 | 20.9 | 0.00 | 0.00 | 0.00 | 37 | 1007.1 |
| 20260505233345 | 25 | 236 | 8.0 | 22.5 | 0.00 | 0.00 | 0.00 | 38 | 1007.0 |
| 20260505232859 | 25 | 228 | 9.7 | 22.5 | 0.00 | 0.00 | 0.00 | 37 | 1006.9 |
| 20260505232354 | 25 | 219 | 1.6 | 17.7 | 0.00 | 0.00 | 0.00 | 38 | 1007.0 |
| 20260505231849 | 25 | 242 | 3.2 | 19.3 | 0.00 | 0.00 | 0.00 | 38 | 1006.9 |
| 20260505231347 | 25 | 243 | 6.4 | 19.3 | 0.00 | 0.00 | 0.00 | 38 | 1006.8 |
| 20260505230843 | 25 | 214 | 3.2 | 17.7 | 0.00 | 0.00 | 0.00 | 38 | 1006.8 |
| 20260505230401 | 25 | 235 | 4.8 | 12.9 | 0.00 | 0.00 | 0.00 | 39 | 1006.8 |
| 20260505225855 | 25 | 242 | 4.8 | 17.7 | 0.00 | 0.00 | 0.00 | 39 | 1006.8 |
| 20260505225506 | 26 | 234 | 0.0 | 17.7 | 0.00 | 0.00 | 0.00 | 39 | 1006.7 |
| 20260505224850 | 26 | 240 | 3.2 | 16.1 | 0.00 | 0.00 | 0.00 | 38 | 1006.7 |
| 20260505224348 | 26 | 226 | 1.6 | 19.3 | 0.00 | 0.00 | 0.00 | 39 | 1006.6 |
| 20260505223844 | 26 | 208 | 11.3 | 27.4 | 0.00 | 0.00 | 0.00 | 38 | 1006.7 |
| 20260505223340 | 26 | 239 | 12.9 | 27.4 | 0.00 | 0.00 | 0.00 | 36 | 1006.7 |
| 20260505222915 | 27 | 280 | 3.2 | 17.7 | 0.00 | 0.00 | 0.00 | 39 | 1006.8 |
| 20260505222350 | 27 | 245 | 6.4 | 17.7 | 0.00 | 0.00 | 0.00 | 38 | 1006.8 |
| 20260505221850 | 26 | 248 | 6.4 | 22.5 | 0.00 | 0.00 | 0.00 | 38 | 1006.8 |
| 20260505221348 | 26 | 219 | 6.4 | 22.5 | 0.00 | 0.00 | 0.00 | 39 | 1006.9 |
| 20260505220845 | 26 | 253 | 8.0 | 22.5 | 0.00 | 0.00 | 0.00 | 38 | 1006.9 |
| 20260505220342 | 26 | 201 | 9.7 | 22.5 | 0.00 | 0.00 | 0.00 | 38 | 1006.9 |
| 20260505215836 | 26 | 239 | 12.9 | 22.5 | 0.00 | 0.00 | 0.00 | 38 | 1006.8 |
| 20260505215353 | 26 | 239 | 9.7 | 29.0 | 0.00 | 0.00 | 0.00 | 38 | 1006.8 |
| 20260505214909 | 27 | 262 | 14.5 | 29.0 | 0.00 | 0.00 | 0.00 | 37 | 1006.8 |
| 20260505214343 | 27 | 119 | 8.0 | 32.2 | 0.00 | 0.00 | 0.00 | 38 | 1006.6 |
| 20260505213839 | 27 | 236 | 12.9 | 32.2 | 0.00 | 0.00 | 0.00 | 37 | 1006.6 |
| 20260505213356 | 27 | 228 | 3.2 | 25.7 | 0.00 | 0.00 | 0.00 | 37 | 1006.6 |
| 20260505212849 | 27 | 236 | 11.3 | 24.1 | 0.00 | 0.00 | 0.00 | 35 | 1006.6 |
| 20260505212345 | 27 | 201 | 9.7 | 22.5 | 0.00 | 0.00 | 0.00 | 36 | 1006.6 |
| 20260505211841 | 27 | 217 | 9.7 | 29.0 | 0.00 | 0.00 | 0.00 | 36 | 1006.6 |
| 20260505211338 | 27 | 240 | 16.1 | 29.0 | 0.00 | 0.00 | 0.00 | 36 | 1006.6 |
| 20260505210854 | 27 | 233 | 12.9 | 30.6 | 0.00 | 0.00 | 0.00 | 36 | 1006.5 |
| 20260505210353 | 27 | 250 | 14.5 | 33.8 | 0.00 | 0.00 | 0.00 | 36 | 1006.7 |
| 20260505205845 | 27 | 217 | 4.8 | 33.8 | 0.00 | 0.00 | 0.00 | 37 | 1006.6 |
| 20260505205345 | 27 | 297 | 8.0 | 33.8 | 0.00 | 0.00 | 0.00 | 37 | 1006.6 |
| 20260505204840 | 27 | 224 | 14.5 | 27.4 | 0.00 | 0.00 | 0.00 | 37 | 1006.5 |
| 20260505204338 | 27 | 278 | 8.0 | 27.4 | 0.00 | 0.00 | 0.00 | 38 | 1006.6 |
| 20260505203855 | 27 | 235 | 9.7 | 35.4 | 0.00 | 0.00 | 0.00 | 38 | 1006.6 |
| 20260505203352 | 27 | 224 | 14.5 | 35.4 | 0.00 | 0.00 | 0.00 | 38 | 1006.7 |
| 20260505202849 | 27 | 224 | 9.7 | 27.4 | 0.00 | 0.00 | 0.00 | 38 | 1006.6 |
| 20260505202344 | 27 | 233 | 12.9 | 27.4 | 0.00 | 0.00 | 0.00 | 38 | 1006.6 |
| 20260505201859 | 27 | 255 | 8.0 | 30.6 | 0.00 | 0.00 | 0.00 | 40 | 1006.8 |
| 20260505201416 | 27 | 225 | 11.3 | 30.6 | 0.00 | 0.00 | 0.00 | 39 | 1006.8 |
| 20260505200852 | 27 | 290 | 11.3 | 27.4 | 0.00 | 0.00 | 0.00 | 39 | 1006.7 |
| 20260505200349 | 27 | 239 | 11.3 | 27.4 | 0.00 | 0.00 | 0.00 | 39 | 1006.8 |
| 20260505195843 | 27 | 236 | 9.7 | 38.6 | 0.00 | 0.00 | 0.00 | 40 | 1006.8 |
| 20260505195340 | 27 | 194 | 11.3 | 38.6 | 0.00 | 0.00 | 0.00 | 39 | 1006.9 |
| 20260505194915 | 27 | 242 | 14.5 | 25.7 | 0.00 | 0.00 | 0.00 | 39 | 1006.9 |
| 20260505194351 | 27 | 239 | 11.3 | 25.7 | 0.00 | 0.00 | 0.00 | 38 | 1007.0 |
| 20260505193849 | 27 | 240 | 9.7 | 27.4 | 0.00 | 0.00 | 0.00 | 39 | 1006.9 |
| 20260505193345 | 27 | 248 | 12.9 | 25.7 | 0.00 | 0.00 | 0.00 | 39 | 1007.0 |
| 20260505192839 | 27 | 242 | 17.7 | 24.1 | 0.00 | 0.00 | 0.00 | 38 | 1007.2 |
| 20260505192356 | 27 | 359 | 6.4 | 24.1 | 0.00 | 0.00 | 0.00 | 39 | 1007.2 |
| 20260505191853 | 27 | 257 | 11.3 | 32.2 | 0.00 | 0.00 | 0.00 | 38 | 1007.2 |
| 20260505191354 | 27 | 128 | 14.5 | 32.2 | 0.00 | 0.00 | 0.00 | 39 | 1007.2 |
| 20260505190852 | 27 | 248 | 9.7 | 27.4 | 0.00 | 0.00 | 0.00 | 39 | 1007.3 |
| 20260505190348 | 27 | 217 | 14.5 | 32.2 | 0.00 | 0.00 | 0.00 | 38 | 1007.4 |
| 20260505185844 | 27 | 259 | 17.7 | 32.2 | 0.00 | 0.00 | 0.00 | 38 | 1007.5 |
| 20260505185341 | 27 | 241 | 12.9 | 30.6 | 0.00 | 0.00 | 0.00 | 38 | 1007.7 |
| 20260505184840 | 27 | 134 | 11.3 | 24.1 | 0.00 | 0.00 | 0.00 | 40 | 1007.5 |
| 20260505184336 | 27 | 335 | 3.2 | 24.1 | 0.00 | 0.00 | 0.00 | 41 | 1007.8 |
| 20260505183853 | 27 | 163 | 9.7 | 22.5 | 0.00 | 0.00 | 0.00 | 42 | 1007.7 |
| 20260505183410 | 27 | 243 | 9.7 | 25.7 | 0.00 | 0.00 | 0.00 | 41 | 1007.6 |
| 20260505182847 | 26 | 226 | 11.3 | 29.0 | 0.00 | 0.00 | 0.00 | 42 | 1007.7 |
| 20260505182342 | 27 | 255 | 11.3 | 29.0 | 0.00 | 0.00 | 0.00 | 40 | 1007.8 |
| 20260505181838 | 27 | 246 | 9.7 | 20.9 | 0.00 | 0.00 | 0.00 | 41 | 1007.8 |
| 20260505181356 | 27 | 241 | 4.8 | 24.1 | 0.00 | 0.00 | 0.00 | 42 | 1007.9 |
| 20260505180852 | 26 | 232 | 9.7 | 24.1 | 0.00 | 0.00 | 0.00 | 42 | 1008.0 |
| 20260505180346 | 26 | 240 | 11.3 | 24.1 | 0.00 | 0.00 | 0.00 | 41 | 1008.1 |
| 20260505175839 | 26 | 233 | 9.7 | 29.0 | 0.00 | 0.00 | 0.00 | 41 | 1008.2 |
| 20260505175356 | 26 | 143 | 8.0 | 29.0 | 0.00 | 0.00 | 0.00 | 43 | 1008.1 |
| 20260505174837 | 26 | 253 | 14.5 | 27.4 | 0.00 | 0.00 | 0.00 | 42 | 1008.1 |
| 20260505174410 | 26 | 232 | 8.0 | 27.4 | 0.00 | 0.00 | 0.00 | 43 | 1008.2 |
| 20260505173903 | 26 | 239 | 9.7 | 27.4 | 0.00 | 0.00 | 0.00 | 42 | 1008.2 |
| 20260505173343 | 26 | 267 | 8.0 | 20.9 | 0.00 | 0.00 | 0.00 | 43 | 1008.3 |
| 20260505172841 | 27 | 152 | 12.9 | 19.3 | 0.00 | 0.00 | 0.00 | 42 | 1008.3 |
| 20260505172337 | 26 | 226 | 11.3 | 29.0 | 0.00 | 0.00 | 0.00 | 41 | 1008.3 |
| 20260505171855 | 26 | 99 | 9.7 | 29.0 | 0.00 | 0.00 | 0.00 | 43 | 1008.2 |
| 20260505171411 | 26 | 243 | 8.0 | 24.1 | 0.00 | 0.00 | 0.00 | 43 | 1008.3 |
| 20260505170848 | 26 | 245 | 6.4 | 24.1 | 0.00 | 0.00 | 0.00 | 45 | 1008.4 |
| 20260505170343 | 26 | 239 | 8.0 | 25.7 | 0.00 | 0.00 | 0.00 | 45 | 1008.6 |
| 20260505165859 | 26 | 246 | 12.9 | 25.7 | 0.00 | 0.00 | 0.00 | 46 | 1008.6 |
| 20260505165355 | 26 | 221 | 3.2 | 19.3 | 0.00 | 0.00 | 0.00 | 46 | 1008.7 |
| 20260505164853 | 26 | 256 | 12.9 | 19.3 | 0.00 | 0.00 | 0.00 | 45 | 1008.8 |
| 20260505164408 | 26 | 249 | 6.4 | 22.5 | 0.00 | 0.00 | 0.00 | 47 | 1008.9 |
| 20260505163845 | 25 | 288 | 4.8 | 22.5 | 0.00 | 0.00 | 0.00 | 47 | 1009.0 |
| 20260505163341 | 26 | 284 | 12.9 | 20.9 | 0.00 | 0.00 | 0.00 | 46 | 1009.2 |
| 20260505162854 | 26 | 235 | 6.4 | 20.9 | 0.00 | 0.00 | 0.00 | 48 | 1009.1 |
| 20260505162411 | 25 | 264 | 4.8 | 20.9 | 0.00 | 0.00 | 0.00 | 48 | 1009.2 |
| 20260505161906 | 25 | 239 | 3.2 | 20.9 | 0.00 | 0.00 | 0.00 | 47 | 1009.1 |
| 20260505161342 | 25 | 243 | 11.3 | 24.1 | 0.00 | 0.00 | 0.00 | 47 | 1009.2 |
| 20260505160840 | 25 | 226 | 8.0 | 19.3 | 0.00 | 0.00 | 0.00 | 46 | 1009.2 |
| 20260505160356 | 25 | 270 | 4.8 | 19.3 | 0.00 | 0.00 | 0.00 | 49 | 1009.2 |
| 20260505153343 | 24 | 280 | 6.4 | 20.9 | 0.00 | 0.00 | 0.00 | 50 | 1009.4 |
| 20260505152838 | 24 | 225 | 6.4 | 20.9 | 0.00 | 0.00 | 0.00 | 51 | 1009.4 |
| 20260505152353 | 23 | 280 | 4.8 | 19.3 | 0.00 | 0.00 | 0.00 | 53 | 1009.4 |
| 20260505151850 | 23 | 255 | 9.7 | 19.3 | 0.00 | 0.00 | 0.00 | 50 | 1009.4 |
| 20260505151347 | 23 | 269 | 8.0 | 16.1 | 0.00 | 0.00 | 0.00 | 52 | 1009.5 |
| 20260505150903 | 23 | 242 | 6.4 | 12.9 | 0.00 | 0.00 | 0.00 | 51 | 1009.6 |
| 20260505150339 | 23 | 252 | 1.6 | 12.9 | 0.00 | 0.00 | 0.00 | 55 | 1009.6 |
| 20260505140338 | 21 | 217 | 4.8 | 11.3 | 0.00 | 0.00 | 0.00 | 60 | 1010.1 |
| 20260505124848 | 17 | 239 | 0.0 | 6.4 | 0.00 | 0.00 | 0.00 | 72 | 1010.8 |
| 20260505124343 | 16 | 233 | 0.0 | 6.4 | 0.00 | 0.00 | 0.00 | 73 | 1010.7 |
| 20260505123839 | 16 | 248 | 3.2 | 8.0 | 0.00 | 0.00 | 0.00 | 72 | 1010.7 |
| 20260505123355 | 16 | 236 | 3.2 | 8.0 | 0.00 | 0.00 | 0.00 | 73 | 1010.8 |
| 20260505122851 | 16 | 250 | 0.0 | 4.8 | 0.00 | 0.00 | 0.00 | 74 | 1010.7 |
| 20260505122351 | 16 | 250 | 0.0 | 4.8 | 0.00 | 0.00 | 0.00 | 74 | 1010.6 |
| 20260505121849 | 16 | 235 | 0.0 | 3.2 | 0.00 | 0.00 | 0.00 | 75 | 1010.5 |
| 20260505121347 | 15 | 236 | 0.0 | 1.6 | 0.00 | 0.00 | 0.00 | 76 | 1010.6 |
| 20260505120841 | 15 | 235 | 0.0 | 1.6 | 0.00 | 0.00 | 0.00 | 78 | 1010.6 |
| 20260505120338 | 15 | 235 | 0.0 | 1.6 | 0.00 | 0.00 | 0.00 | 76 | 1010.5 |
| 20260505115851 | 16 | 235 | 0.0 | 4.8 | 0.00 | 0.00 | 0.00 | 75 | 1010.4 |
| 20260505115349 | 16 | 235 | 0.0 | 4.8 | 0.00 | 0.00 | 0.00 | 75 | 1010.4 |
| 20260505114845 | 15 | 146 | 0.0 | 0.0 | 0.00 | 0.00 | 0.00 | 78 | 1010.3 |
| 20260505114340 | 15 | 146 | 0.0 | 0.0 | 0.00 | 0.00 | 0.00 | 78 | 1010.2 |
| 20260505113839 | 15 | 146 | 0.0 | 0.0 | 0.00 | 0.00 | 0.00 | 80 | 1010.2 |
| 20260505113337 | 14 | 147 | 0.0 | 0.0 | 0.00 | 0.00 | 0.00 | 81 | 1010.1 |
| 20260505112854 | 13 | 146 | 0.0 | 0.0 | 0.00 | 0.00 | 0.00 | 83 | 1010.0 |
| 20260505112351 | 13 | 147 | 0.0 | 0.0 | 0.00 | 0.00 | 0.00 | 86 | 1010.0 |
| 20260505111909 | 12 | 147 | 0.0 | 0.0 | 0.00 | 0.00 | 0.00 | 87 | 1010.1 |
| 20260505111345 | 12 | 147 | 0.0 | 0.0 | 0.00 | 0.00 | 0.00 | 91 | 1010.1 |
| 20260505110842 | 11 | 146 | 0.0 | 0.0 | 0.00 | 0.00 | 0.00 | 93 | 1010.3 |
| 20260505110338 | 10 | 146 | 0.0 | 0.0 | 0.00 | 0.00 | 0.00 | 93 | 1010.3 |
| 20260505101842 | 9 | 146 | 0.0 | 0.0 | 0.00 | 0.00 | 0.00 | 94 | 1009.6 |
| 20260505101337 | 9 | 146 | 0.0 | 0.0 | 0.00 | 0.00 | 0.00 | 94 | 1009.6 |
| 20260505100914 | 9 | 146 | 0.0 | 0.0 | 0.00 | 0.00 | 0.00 | 93 | 1009.4 |
| 20260505100349 | 9 | 146 | 0.0 | 0.0 | 0.00 | 0.00 | 0.00 | 93 | 1009.5 |
| 20260505095843 | 9 | 147 | 0.0 | 0.0 | 0.00 | 0.00 | 0.00 | 92 | 1009.5 |
| 20260505095339 | 10 | 146 | 0.0 | 0.0 | 0.00 | 0.00 | 0.00 | 91 | 1009.5 |
| 20260505094855 | 10 | 147 | 0.0 | 0.0 | 0.00 | 0.00 | 0.00 | 91 | 1009.5 |
| 20260505094353 | 10 | 146 | 0.0 | 0.0 | 0.00 | 0.00 | 0.00 | 91 | 1009.5 |
| 20260505093849 | 10 | 146 | 0.0 | 0.0 | 0.00 | 0.00 | 0.00 | 91 | 1009.4 |
| 20260505093350 | 10 | 147 | 0.0 | 0.0 | 0.00 | 0.00 | 0.00 | 90 | 1009.4 |
| 20260505092846 | 10 | 146 | 0.0 | 0.0 | 0.00 | 0.00 | 0.00 | 90 | 1009.5 |
| 20260505092343 | 10 | 147 | 0.0 | 0.0 | 0.00 | 0.00 | 0.00 | 90 | 1009.3 |
| 20260505091841 | 10 | 146 | 0.0 | 0.0 | 0.00 | 0.00 | 0.00 | 90 | 1009.3 |
| 20260505091356 | 10 | 146 | 0.0 | 0.0 | 0.00 | 0.00 | 0.00 | 89 | 1009.3 |
| 20260505090853 | 10 | 146 | 0.0 | 0.0 | 0.00 | 0.00 | 0.00 | 89 | 1009.3 |
| 20260505090351 | 10 | 147 | 0.0 | 0.0 | 0.00 | 0.00 | 0.00 | 88 | 1009.2 |
| 20260505085844 | 10 | 146 | 0.0 | 0.0 | 0.00 | 0.00 | 0.00 | 88 | 1009.2 |
| 20260505085342 | 10 | 147 | 0.0 | 0.0 | 0.00 | 0.00 | 0.00 | 88 | 1009.3 |
| 20260505084838 | 10 | 146 | 0.0 | 0.0 | 0.00 | 0.00 | 0.00 | 87 | 1009.2 |
| 20260505084353 | 10 | 146 | 0.0 | 0.0 | 0.00 | 0.00 | 0.00 | 87 | 1009.2 |
| 20260505083848 | 11 | 146 | 0.0 | 0.0 | 0.00 | 0.00 | 0.00 | 86 | 1009.1 |
| 20260505083345 | 11 | 146 | 0.0 | 0.0 | 0.00 | 0.00 | 0.00 | 86 | 1009.2 |
| 20260505082840 | 11 | 147 | 0.0 | 0.0 | 0.00 | 0.00 | 0.00 | 86 | 1009.1 |
| 20260505082336 | 11 | 147 | 0.0 | 0.0 | 0.00 | 0.00 | 0.00 | 86 | 1009.1 |
| 20260505081853 | 11 | 146 | 0.0 | 0.0 | 0.00 | 0.00 | 0.00 | 85 | 1009.1 |
| 20260505081351 | 11 | 146 | 0.0 | 0.0 | 0.00 | 0.00 | 0.00 | 85 | 1009.1 |
| 20260505080848 | 11 | 146 | 0.0 | 0.0 | 0.00 | 0.00 | 0.00 | 83 | 1009.1 |
| 20260505080348 | 11 | 146 | 0.0 | 0.0 | 0.00 | 0.00 | 0.00 | 83 | 1009.1 |
| 20260505075907 | 11 | 146 | 0.0 | 0.0 | 0.00 | 0.00 | 0.00 | 83 | 1009.1 |
| 20260505075342 | 11 | 146 | 0.0 | 0.0 | 0.00 | 0.00 | 0.00 | 83 | 1009.1 |
| 20260505074839 | 11 | 146 | 0.0 | 0.0 | 0.00 | 0.00 | 0.00 | 84 | 1009.0 |
| 20260505074357 | 11 | 147 | 0.0 | 0.0 | 0.00 | 0.00 | 0.00 | 84 | 1009.0 |
| 20260505073854 | 11 | 146 | 0.0 | 0.0 | 0.00 | 0.00 | 0.00 | 83 | 1009.0 |
| 20260505073412 | 11 | 146 | 0.0 | 0.0 | 0.00 | 0.00 | 0.00 | 84 | 1008.9 |
| 20260505072846 | 11 | 146 | 0.0 | 0.0 | 0.00 | 0.00 | 0.00 | 84 | 1008.9 |
| 20260505072342 | 11 | 146 | 0.0 | 0.0 | 0.00 | 0.00 | 0.00 | 85 | 1008.8 |
| 20260505071841 | 11 | 146 | 0.0 | 0.0 | 0.00 | 0.00 | 0.00 | 85 | 1008.9 |
| 20260505071417 | 11 | 147 | 0.0 | 0.0 | 0.00 | 0.00 | 0.00 | 85 | 1008.9 |
| 20260505070854 | 11 | 146 | 0.0 | 0.0 | 0.00 | 0.00 | 0.00 | 84 | 1008.8 |
| 20260505070412 | 12 | 146 | 0.0 | 0.0 | 0.00 | 0.00 | 0.00 | 83 | 1008.9 |
| 20260505065850 | 12 | 146 | 0.0 | 0.0 | 0.00 | 0.00 | 0.00 | 82 | 1008.9 |
| 20260505065348 | 12 | 146 | 0.0 | 0.0 | 0.00 | 0.00 | 0.00 | 81 | 1008.9 |
| 20260505064845 | 12 | 147 | 0.0 | 0.0 | 0.00 | 0.00 | 0.00 | 81 | 1009.0 |
| 20260505064343 | 12 | 147 | 0.0 | 0.0 | 0.00 | 0.00 | 0.00 | 81 | 1009.0 |
| 20260505063840 | 12 | 147 | 0.0 | 0.0 | 0.00 | 0.00 | 0.00 | 81 | 1009.1 |
| 20260505063337 | 12 | 146 | 0.0 | 0.0 | 0.00 | 0.00 | 0.00 | 81 | 1009.2 |
| 20260505062854 | 12 | 146 | 0.0 | 0.0 | 0.00 | 0.00 | 0.00 | 81 | 1009.3 |
| 20260505062353 | 12 | 146 | 0.0 | 0.0 | 0.00 | 0.00 | 0.00 | 81 | 1009.3 |
| 20260505061851 | 12 | 147 | 0.0 | 0.0 | 0.00 | 0.00 | 0.00 | 80 | 1009.3 |
| 20260505061352 | 12 | 146 | 0.0 | 0.0 | 0.00 | 0.00 | 0.00 | 78 | 1009.2 |
| 20260505060850 | 13 | 146 | 0.0 | 0.0 | 0.00 | 0.00 | 0.00 | 77 | 1009.3 |
| 20260505060347 | 13 | 146 | 0.0 | 0.0 | 0.00 | 0.00 | 0.00 | 74 | 1009.2 |
| 20260505055842 | 13 | 146 | 0.0 | 0.0 | 0.00 | 0.00 | 0.00 | 72 | 1009.2 |
| 20260505055340 | 13 | 146 | 0.0 | 0.0 | 0.00 | 0.00 | 0.00 | 73 | 1009.2 |
| 20260505054917 | 13 | 146 | 0.0 | 0.0 | 0.00 | 0.00 | 0.00 | 74 | 1009.2 |
| 20260505054353 | 13 | 147 | 0.0 | 0.0 | 0.00 | 0.00 | 0.00 | 74 | 1009.3 |
| 20260505053911 | 13 | 147 | 0.0 | 0.0 | 0.00 | 0.00 | 0.00 | 75 | 1009.3 |
| 20260505053345 | 13 | 147 | 0.0 | 0.0 | 0.00 | 0.00 | 0.00 | 73 | 1009.3 |
| 20260505052843 | 13 | 146 | 0.0 | 0.0 | 0.00 | 0.00 | 0.00 | 72 | 1009.2 |
| 20260505052341 | 13 | 146 | 0.0 | 0.0 | 0.00 | 0.00 | 0.00 | 71 | 1009.2 |
| 20260505051837 | 13 | 146 | 0.0 | 0.0 | 0.00 | 0.00 | 0.00 | 72 | 1009.2 |
| 20260505051354 | 13 | 147 | 0.0 | 0.0 | 0.00 | 0.00 | 0.00 | 72 | 1009.2 |
| 20260505050852 | 13 | 146 | 0.0 | 0.0 | 0.00 | 0.00 | 0.00 | 71 | 1009.2 |
| 20260505050348 | 14 | 147 | 0.0 | 0.0 | 0.00 | 0.00 | 0.00 | 69 | 1009.2 |
| 20260505041412 | 14 | 154 | 0.0 | 0.0 | 0.00 | 0.00 | 0.00 | 66 | 1009.0 |
| 20260505040848 | 14 | 156 | 0.0 | 0.0 | 0.00 | 0.00 | 0.00 | 66 | 1009.0 |
| 20260505040348 | 15 | 167 | 0.0 | 0.0 | 0.00 | 0.00 | 0.00 | 66 | 1009.0 |
| 20260505035842 | 14 | 167 | 0.0 | 1.6 | 0.00 | 0.00 | 0.00 | 66 | 1009.0 |
| 20260505035359 | 14 | 201 | 0.0 | 1.6 | 0.00 | 0.00 | 0.00 | 66 | 1008.8 |
| 20260505034854 | 14 | 243 | 0.0 | 1.6 | 0.00 | 0.00 | 0.00 | 66 | 1008.9 |
| 20260505034351 | 14 | 245 | 0.0 | 1.6 | 0.00 | 0.00 | 0.00 | 65 | 1009.0 |
| 20260505033848 | 14 | 245 | 0.0 | 1.6 | 0.00 | 0.00 | 0.00 | 65 | 1008.9 |
| 20260505033343 | 15 | 243 | 0.0 | 1.6 | 0.00 | 0.00 | 0.00 | 64 | 1008.8 |
| 20260505032917 | 15 | 245 | 0.0 | 0.0 | 0.00 | 0.00 | 0.00 | 64 | 1008.9 |
| 20260505032354 | 15 | 245 | 0.0 | 0.0 | 0.00 | 0.00 | 0.00 | 63 | 1008.8 |
| 20260505031911 | 15 | 245 | 0.0 | 0.0 | 0.00 | 0.00 | 0.00 | 62 | 1008.9 |
| 20260505031349 | 15 | 245 | 0.0 | 0.0 | 0.00 | 0.00 | 0.00 | 61 | 1008.9 |
| 20260505030904 | 15 | 245 | 0.0 | 0.0 | 0.00 | 0.00 | 0.00 | 61 | 1008.9 |
| 20260505030340 | 15 | 245 | 0.0 | 1.6 | 0.00 | 0.00 | 0.00 | 60 | 1008.9 |
| 20260505025916 | 15 | 243 | 0.0 | 1.6 | 0.00 | 0.00 | 0.00 | 60 | 1008.9 |
| 20260505025353 | 15 | 243 | 0.0 | 1.6 | 0.00 | 0.00 | 0.00 | 60 | 1008.8 |
| 20260505024849 | 15 | 245 | 0.0 | 1.6 | 0.00 | 0.00 | 0.00 | 60 | 1008.7 |
| 20260505024350 | 15 | 248 | 0.0 | 0.0 | 0.00 | 0.00 | 0.00 | 61 | 1008.6 |
| 20260505023846 | 15 | 248 | 0.0 | 0.0 | 0.00 | 0.00 | 0.00 | 60 | 1008.8 |
| 20260505023343 | 15 | 248 | 0.0 | 0.0 | 0.00 | 0.00 | 0.00 | 60 | 1008.7 |
| 20260505022840 | 15 | 248 | 0.0 | 0.0 | 0.00 | 0.00 | 0.00 | 60 | 1008.6 |
| 20260505022356 | 15 | 248 | 0.0 | 0.0 | 0.00 | 0.00 | 0.00 | 59 | 1008.6 |
| 20260505021852 | 16 | 248 | 0.0 | 1.6 | 0.00 | 0.00 | 0.00 | 59 | 1008.6 |
| 20260505021410 | 16 | 248 | 0.0 | 1.6 | 0.00 | 0.00 | 0.00 | 59 | 1008.8 |
| 20260505020847 | 16 | 250 | 0.0 | 1.6 | 0.00 | 0.00 | 0.00 | 58 | 1008.9 |
| 20260505020344 | 16 | 250 | 0.0 | 1.6 | 0.00 | 0.00 | 0.00 | 58 | 1008.9 |
| 20260505015838 | 16 | 250 | 0.0 | 1.6 | 0.00 | 0.00 | 0.00 | 58 | 1008.8 |
| 20260505015356 | 16 | 252 | 0.0 | 1.6 | 0.00 | 0.00 | 0.00 | 58 | 1008.9 |
| 20260505014913 | 16 | 250 | 0.0 | 1.6 | 0.00 | 0.00 | 0.00 | 57 | 1008.7 |
| 20260505014349 | 16 | 250 | 0.0 | 1.6 | 0.00 | 0.00 | 0.00 | 56 | 1008.7 |
| 20260505013906 | 17 | 256 | 0.0 | 3.2 | 0.00 | 0.00 | 0.00 | 56 | 1008.8 |
| 20260505013341 | 17 | 256 | 0.0 | 3.2 | 0.00 | 0.00 | 0.00 | 55 | 1008.8 |
| 20260505012853 | 17 | 248 | 1.6 | 4.8 | 0.00 | 0.00 | 0.00 | 55 | 1008.9 |
| 20260505012350 | 17 | 248 | 1.6 | 4.8 | 0.00 | 0.00 | 0.00 | 54 | 1008.8 |
| 20260505011845 | 17 | 249 | 0.0 | 6.4 | 0.00 | 0.00 | 0.00 | 55 | 1008.7 |
| 20260505011343 | 17 | 253 | 0.0 | 6.4 | 0.00 | 0.00 | 0.00 | 54 | 1008.6 |
| 20260505010901 | 17 | 313 | 0.0 | 1.6 | 0.00 | 0.00 | 0.00 | 54 | 1008.4 |
| 20260505010340 | 17 | 315 | 0.0 | 9.7 | 0.00 | 0.00 | 0.00 | 54 | 1008.3 |
| 20260505005855 | 17 | 215 | 1.6 | 9.7 | 0.00 | 0.00 | 0.00 | 53 | 1008.4 |
| 20260505005352 | 17 | 243 | 0.0 | 6.4 | 0.00 | 0.00 | 0.00 | 53 | 1008.3 |
| 20260505004910 | 18 | 243 | 3.2 | 6.4 | 0.00 | 0.00 | 0.00 | 52 | 1008.3 |
| 20260505004345 | 18 | 256 | 0.0 | 11.3 | 0.00 | 0.00 | 0.00 | 53 | 1008.3 |
| 20260505003843 | 18 | 256 | 0.0 | 11.3 | 0.00 | 0.00 | 0.00 | 53 | 1008.2 |
| 20260505003401 | 18 | 217 | 3.2 | 6.4 | 0.00 | 0.00 | 0.00 | 51 | 1008.2 |